Vremea acum in Bucuresti - Romania

Vrei sa afli care e starea vremii acum in Bucuresti - Romania? Dorim sa iti furnizam starea vremii pentru Bucuresti - Romania. Starea vremii Bucuresti - Romania pentru astazi.

Vremea acum in Bucuresti

Temperatura: 6 °C

Se simte ca: 6 °C
Innorat: 0 %
Precipitatii: 0 %
Presiune atmosferica: 1026 hPa
Umiditate: 93%
Vizibilitate: 10 km
Vantul bate din N cu 0 km/h

Evolutia vremii in Bucuresti pe ore

Ora: 08:00
Noros
Temperatura: 7.5°C
Sansa de precipitatii: 0%
Ora Descriere Temp Se simte Precipitatii Umiditate Vant
00:00Noros8.5°6.7°0%70%ESE 10.4 KM/H
01:00Noros8.2°6.7°0%71%SE 9.4 KM/H
02:00Noros6.6°0%72%SE 8.3 KM/H
03:00Cer acoperit7.9°6.6°0%73%SE 7.9 KM/H
04:00Noros7.9°6.6°0%73%SE 7.6 KM/H
05:00Cer acoperit7.8°6.6°0%73%SSE 7.2 KM/H
06:00Noros7.7°6.8°0%74%SSE 6.1 KM/H
07:00Cer acoperit7.6°0%74%S 5.4 KM/H
08:00Noros7.5°7.2°0%75%S 4.3 KM/H
09:00Parțial noros8.6°8.1°0%70%SSW 5.4 KM/H
10:00Noros9.6°0%66%SSW 6.5 KM/H
11:00Parțial noros10.7°9.9°0%61%SW 7.6 KM/H
12:00Parțial noros11.4°10.7°0%59%WSW 7.6 KM/H
13:00Parțial noros12.2°11.6°0%56%WSW 7.9 KM/H
14:00Parțial noros12.9°12.4°0%54%W 7.9 KM/H
15:00Burniță uşoară pe porțiuni12.5°12.3°28%57%S 6.5 KM/H
16:00Parțial noros12.2°12.2°55%60%ESE 5.4 KM/H
17:00Burniță uşoară pe porțiuni11.8°12.1°83%63%NNE 4 KM/H
18:00Ploi uşoare11.4°11.3°81%66%NE 5.4 KM/H
19:00Burniță uşoară pe porțiuni11.1°10.5°80%69%ENE 7.2 KM/H
20:00Ploi uşoare10.7°9.7°78%73%E 8.6 KM/H
21:00Ploi uşoare10.3°80%73%ENE 10.1 KM/H
22:00Ploi uşoare10°8.3°83%74%ENE 11.9 KM/H
23:00Ploi uşoare9.6°7.6°85%74%ENE 13.3 KM/H